Time;durP1;ratioP1;P1;durP2;ratioP2;P2;SDS_P1;SDS_P2;PMS_P1;PMS_P2;Temp;Humidity;BMP_temperature;BMP_pressure;BME280_temperature;BME280_humidity;BME280_pressure;Samples;Min_cycle;Max_cycle;Signal;HPM_P1;HPM_P2
2021/10/01 05:32:35;;;;;;;13.48;8.73;;;;;;;3.95;87.24;101817.31;1722621;83;21565;-33
2021/10/01 05:35:03;;;;;;;22.10;8.05;;;;;;;4.22;87.12;101820.39;1720904;81;21420;-38
2021/10/01 05:37:34;;;;;;;12.90;8.08;;;;;;;4.43;87.03;101819.27;1718879;81;21968;-34
2021/10/01 05:40:03;;;;;;;15.98;9.28;;;;;;;4.62;86.81;101821.93;1721984;82;21648;-38
2021/10/01 05:42:30;;;;;;;20.40;9.40;;;;;;;4.82;86.35;101821.61;1724617;81;20974;-38
2021/10/01 05:44:57;;;;;;;13.62;8.13;;;;;;;4.97;85.91;101828.80;1723306;82;21049;-39
2021/10/01 05:47:29;;;;;;;16.17;8.20;;;;;;;5.11;85.57;101828.16;1681590;81;21525;-37
2021/10/01 05:50:15;;;;;;;17.60;10.35;;;;;;;5.26;85.43;101831.44;1723100;81;21283;-37
2021/10/01 05:53:13;;;;;;;18.60;8.70;;;;;;;5.41;85.21;101831.26;1678619;83;21057;-38
2021/10/01 05:55:48;;;;;;;15.80;8.50;;;;;;;5.56;85.18;101837.12;1721110;81;21531;-38
2021/10/01 05:58:26;;;;;;;15.68;7.85;;;;;;;5.74;84.82;101829.66;1641368;85;21090;-39
2021/10/01 06:00:57;;;;;;;18.17;8.75;;;;;;;5.90;84.54;101830.81;1638214;86;21077;-33
2021/10/01 06:03:24;;;;;;;19.67;11.65;;;;;;;6.04;84.56;101830.16;1638196;85;21080;-33
2021/10/01 06:05:51;;;;;;;17.77;9.53;;;;;;;6.20;84.63;101826.47;1633279;86;20989;-32
2021/10/01 06:08:19;;;;;;;17.77;9.28;;;;;;;6.35;84.60;101820.63;1611979;87;21111;-33
2021/10/01 06:10:46;;;;;;;18.55;9.68;;;;;;;6.51;84.56;101821.73;1637175;86;21522;-33
2021/10/01 06:13:14;;;;;;;18.55;9.48;;;;;;;6.70;84.42;101826.37;1636598;85;21060;-38
2021/10/01 06:15:41;;;;;;;22.13;11.53;;;;;;;6.89;84.12;101828.86;1632324;85;21011;-38
2021/10/01 06:18:08;;;;;;;29.25;12.47;;;;;;;7.08;83.81;101826.17;1635211;85;21136;-38
2021/10/01 06:20:35;;;;;;;21.20;11.90;;;;;;;7.29;83.56;101827.38;1639037;86;21025;-38
2021/10/01 06:23:02;;;;;;;21.15;11.12;;;;;;;7.50;83.00;101829.90;1633831;86;21073;-38
2021/10/01 06:25:29;;;;;;;21.68;10.72;;;;;;;7.70;82.48;101834.52;1636996;86;21022;-33
2021/10/01 06:27:56;;;;;;;24.32;12.65;;;;;;;7.88;81.64;101831.26;1641037;86;21009;-33
2021/10/01 06:30:23;;;;;;;22.93;9.65;;;;;;;8.09;81.09;101832.86;1639976;86;21000;-38
2021/10/01 06:32:50;;;;;;;28.80;10.45;;;;;;;8.30;80.17;101825.77;1613546;87;21438;-38
2021/10/01 06:35:17;;;;;;;22.13;9.98;;;;;;;8.50;78.43;101824.72;1685297;82;20982;-38
2021/10/01 06:37:44;;;;;;;14.78;8.93;;;;;;;8.69;77.80;101822.70;1721629;82;20985;-38
2021/10/01 06:40:12;;;;;;;23.27;10.32;;;;;;;8.88;76.61;101817.24;1720663;82;21137;-38
2021/10/01 06:42:42;;;;;;;14.58;8.13;;;;;;;9.08;75.37;101825.67;1723632;82;21304;-38
2021/10/01 06:45:08;;;;;;;13.20;8.03;;;;;;;9.25;74.68;101819.22;1722713;82;21105;-37
2021/10/01 06:47:50;;;;;;;12.88;7.30;;;;;;;9.44;72.31;101816.72;1719005;82;20954;-37
2021/10/01 07:23:23;;;;;;;7.22;4.22;;;;;;;11.39;56.54;101804.12;1717098;82;21002;-38
2021/10/01 07:36:51;;;;;;;9.55;3.90;;;;;;;11.96;53.05;101800.89;1720727;82;21013;-31
2021/10/01 07:45:31;;;;;;;10.18;4.08;;;;;;;12.20;51.49;101799.13;1721530;81;21687;-32
2021/10/01 08:20:26;;;;;;;4.62;2.90;;;;;;;13.45;45.52;101781.28;1719936;81;21034;-37
2021/10/01 08:22:54;;;;;;;7.47;3.10;;;;;;;13.54;45.70;101779.17;1718390;81;21002;-32
2021/10/01 08:25:21;;;;;;;3.22;2.55;;;;;;;13.58;45.03;101780.55;1722416;81;20921;-32
2021/10/01 08:27:48;;;;;;;3.67;2.58;;;;;;;13.65;44.92;101767.02;1719177;81;21165;-33
2021/10/01 08:30:15;;;;;;;6.97;2.60;;;;;;;13.71;44.91;101772.78;1714951;81;20990;-32
2021/10/01 08:32:49;;;;;;;6.30;2.20;;;;;;;13.77;44.81;101764.52;1722254;81;21056;-31
2021/10/01 08:35:14;;;;;;;3.80;2.58;;;;;;;13.83;44.58;101763.27;1714467;82;20993;-37
2021/10/01 08:37:44;;;;;;;6.58;2.58;;;;;;;13.91;44.71;101758.50;1716016;82;21088;-33
2021/10/01 08:40:11;;;;;;;2.72;2.40;;;;;;;13.98;44.09;101752.45;1715278;82;21390;-36
2021/10/01 08:42:45;;;;;;;3.60;2.52;;;;;;;14.04;43.54;101753.82;1718044;82;21018;-37
2021/10/01 08:45:13;;;;;;;5.42;2.15;;;;;;;14.08;43.67;101747.70;1719083;82;21331;-37
2021/10/01 08:47:41;;;;;;;5.35;2.22;;;;;;;14.15;43.78;101757.43;1721765;82;21075;-37
2021/10/01 08:50:09;;;;;;;3.00;2.70;;;;;;;14.19;43.12;101747.35;1722566;82;21036;-37
2021/10/01 08:52:36;;;;;;;4.90;2.42;;;;;;;14.25;43.12;101746.52;1722838;81;21483;-38
2021/10/01 08:55:04;;;;;;;4.75;2.87;;;;;;;14.28;43.37;101744.80;1720072;82;21028;-33
2021/10/01 08:57:31;;;;;;;3.05;2.62;;;;;;;14.32;43.59;101740.42;1719961;82;21358;-33
2021/10/01 08:59:59;;;;;;;5.87;2.72;;;;;;;14.38;43.41;101739.19;1716854;81;21639;-33
2021/10/01 09:02:27;;;;;;;4.20;2.10;;;;;;;14.43;43.12;101739.19;1721711;82;21020;-33
2021/10/01 09:04:55;;;;;;;7.25;2.90;;;;;;;14.45;42.37;101731.77;1720818;83;21041;-31
2021/10/01 09:07:23;;;;;;;2.70;2.45;;;;;;;14.47;42.53;101726.53;1701313;82;21079;-32
2021/10/01 09:09:53;;;;;;;4.37;2.80;;;;;;;14.50;42.68;101730.08;1730232;82;21454;-32
2021/10/01 09:12:22;;;;;;;4.50;2.80;;;;;;;14.58;42.63;101724.41;1718469;83;21029;-31
2021/10/01 09:14:56;;;;;;;13.43;2.62;;;;;;;14.69;42.97;101724.48;1667448;84;21553;-32
2021/10/01 09:17:28;;;;;;;4.40;2.27;;;;;;;14.75;41.97;101727.15;1661875;85;21348;-33
2021/10/01 09:19:55;;;;;;;5.83;2.70;;;;;;;14.80;42.45;101720.59;1673936;84;21058;-33
